Check out our new BloomSky Weather System.

Active alerts

Galveston, TX
  Details for Galveston, TX Rip Current Statement


Thunder radar  blitzortung!


Rain radar more information rain snow radar


Visit our other weather sites:

Template documentation
and downloads

And another site



Weather Underground History page Text

Daily Summary for January 24, 2018 Units:  Both    English   Metric
« Previous Day
Next Day »
Daily Weekly Monthly Yearly Custom
  High: Low: Average:
Temperature: TemperatureF °F /  -17.8 °C 36.5 °F /  2.5 °C 49.1 °F /  9.5 °C
Dew Point: DewpointF °F /  -17.8 °C 28.0 °F /  -2.2 °C 31.1 °F /  -0.5 °C
Humidity: Humidity % 24 % 54 %
Wind Speed: WindSpeedMPH mph /  0 km/h - 0.8 mph /  1.3 km/h
Wind Gust: WindSpeedGustMPH mph /  0 km/h - -
Wind:- - South
Pressure: PressureIn in /  0 hPa 30.32 in /  1026.6 hPa -
Precipitation: 0.00 in /  0 mm    
Historical Graphs
 
 
Tabular Data for January 24, 2018
Time Temperature Dew Point Pressure Wind Wind Speed Wind Gust Humidity Rainfall Rate (Hourly)
TemperatureF °F /  -17.8 °C DewpointF °F /  -17.8 °C PressureIn in /  0 hPa Calm     Humidity % HourlyPrecipIn in /  0 mm
00:04 41.2 °F /  5.1 °C 34.9 °F /  1.6 °C 30.32 in /  1026.6 hPa Calm   1.0 mph /  1.6 km/h 78 % 0.00 in /  0 mm
00:09 41.4 °F /  5.2 °C 34.7 °F /  1.5 °C 30.32 in /  1026.6 hPa Calm   1.0 mph /  1.6 km/h 77 % 0.00 in /  0 mm
00:14 41.5 °F /  5.3 °C 34.2 °F /  1.2 °C 30.32 in /  1026.6 hPa Calm   1.0 mph /  1.6 km/h 75 % 0.00 in /  0 mm
00:19 41.5 °F /  5.3 °C 33.8 °F /  1 °C 30.32 in /  1026.6 hPa Calm   1.0 mph /  1.6 km/h 74 % 0.00 in /  0 mm
00:24 41.5 °F /  5.3 °C 33.6 °F /  0.9 °C 30.32 in /  1026.6 hPa Calm   1.0 mph /  1.6 km/h 73 % 0.00 in /  0 mm
00:29 41.4 °F /  5.2 °C 33.4 °F /  0.8 °C 30.32 in /  1026.6 hPa Calm   1.0 mph /  1.6 km/h 73 % 0.00 in /  0 mm
00:34 40.8 °F /  4.9 °C 32.9 °F /  0.5 °C 30.33 in /  1027 hPa Calm     73 % 0.00 in /  0 mm
00:39 40.3 °F /  4.6 °C 32.4 °F /  0.2 °C 30.33 in /  1027 hPa Calm     73 % 0.00 in /  0 mm
00:44 39.7 °F /  4.3 °C 32.2 °F /  0.1 °C 30.33 in /  1027 hPa Calm     74 % 0.00 in /  0 mm
00:49 39.4 °F /  4.1 °C 32.2 °F /  0.1 °C 30.34 in /  1027.3 hPa Calm     75 % 0.00 in /  0 mm
00:54 39.4 °F /  4.1 °C 32.7 °F /  0.4 °C 30.33 in /  1027 hPa Calm     77 % 0.00 in /  0 mm
00:59 39.4 °F /  4.1 °C 32.7 °F /  0.4 °C 30.34 in /  1027.3 hPa Calm     77 % 0.00 in /  0 mm
01:04 39.0 °F /  3.9 °C 32.2 °F /  0.1 °C 30.34 in /  1027.3 hPa Calm     76 % 0.00 in /  0 mm
01:09 38.5 °F /  3.6 °C 31.6 °F /  -0.2 °C 30.34 in /  1027.3 hPa Calm     76 % 0.00 in /  0 mm
01:14 37.9 °F /  3.3 °C 31.1 °F /  -0.5 °C 30.34 in /  1027.3 hPa Calm     76 % 0.00 in /  0 mm
01:19 37.6 °F /  3.1 °C 31.1 °F /  -0.5 °C 30.34 in /  1027.3 hPa Calm     77 % 0.00 in /  0 mm
01:24 37.2 °F /  2.9 °C 31.3 °F /  -0.4 °C 30.34 in /  1027.3 hPa Calm     79 % 0.00 in /  0 mm
01:29 37.2 °F /  2.9 °C 31.3 °F /  -0.4 °C 30.34 in /  1027.3 hPa Calm     79 % 0.00 in /  0 mm
01:39 37.4 °F /  3 °C 32.2 °F /  0.1 °C 30.35 in /  1027.7 hPa Calm     81 % 0.00 in /  0 mm
01:54 37.9 °F /  3.3 °C 32.4 °F /  0.2 °C 30.35 in /  1027.7 hPa Calm     80 % 0.00 in /  0 mm
02:00 37.8 °F /  3.2 °C 32.2 °F /  0.1 °C 30.35 in /  1027.7 hPa Calm     80 % 0.00 in /  0 mm
02:04 37.8 °F /  3.2 °C 32.2 °F /  0.1 °C 30.35 in /  1027.7 hPa Calm     80 % 0.00 in /  0 mm
02:10 37.6 °F /  3.1 °C 31.6 °F /  -0.2 °C 30.35 in /  1027.7 hPa Calm     79 % 0.00 in /  0 mm
02:15 37.2 °F /  2.9 °C 31.6 °F /  -0.2 °C 30.35 in /  1027.7 hPa Calm     80 % 0.00 in /  0 mm
02:20 37.0 °F /  2.8 °C 31.5 °F /  -0.3 °C 30.35 in /  1027.7 hPa Calm     80 % 0.00 in /  0 mm
02:25 36.9 °F /  2.7 °C 31.6 °F /  -0.2 °C 30.35 in /  1027.7 hPa Calm     81 % 0.00 in /  0 mm
02:35 36.5 °F /  2.5 °C 31.3 °F /  -0.4 °C 30.36 in /  1028 hPa Calm     81 % 0.00 in /  0 mm
02:40 36.5 °F /  2.5 °C 31.8 °F /  -0.1 °C 30.36 in /  1028 hPa Calm     83 % 0.00 in /  0 mm
02:45 36.9 °F /  2.7 °C 32.5 °F /  0.3 °C 30.36 in /  1028 hPa Calm     84 % 0.00 in /  0 mm
02:50 37.0 °F /  2.8 °C 32.4 °F /  0.2 °C 30.36 in /  1028 hPa Calm     83 % 0.00 in /  0 mm
02:55 36.9 °F /  2.7 °C 31.8 °F /  -0.1 °C 30.36 in /  1028 hPa Calm     82 % 0.00 in /  0 mm
03:00 36.7 °F /  2.6 °C 31.6 °F /  -0.2 °C 30.36 in /  1028 hPa Calm     82 % 0.00 in /  0 mm
03:05 36.7 °F /  2.6 °C 32.0 °F /  0 °C 30.37 in /  1028.3 hPa Calm     83 % 0.00 in /  0 mm
03:10 36.7 °F /  2.6 °C 32.4 °F /  0.2 °C 30.36 in /  1028 hPa Calm     84 % 0.00 in /  0 mm
03:15 36.7 °F /  2.6 °C 32.4 °F /  0.2 °C 30.37 in /  1028.3 hPa Calm     84 % 0.00 in /  0 mm
03:30 36.9 °F /  2.7 °C 32.7 °F /  0.4 °C 30.36 in /  1028 hPa Calm   1.0 mph /  1.6 km/h 85 % 0.00 in /  0 mm
03:35 37.0 °F /  2.8 °C 32.9 °F /  0.5 °C 30.36 in /  1028 hPa Calm   1.0 mph /  1.6 km/h 85 % 0.00 in /  0 mm
03:40 37.0 °F /  2.8 °C 32.7 °F /  0.4 °C 30.36 in /  1028 hPa Calm   1.0 mph /  1.6 km/h 84 % 0.00 in /  0 mm
03:45 37.2 °F /  2.9 °C 32.5 °F /  0.3 °C 30.37 in /  1028.3 hPa Calm   1.0 mph /  1.6 km/h 83 % 0.00 in /  0 mm
03:50 37.0 °F /  2.8 °C 32.0 °F /  0 °C 30.37 in /  1028.3 hPa Calm   1.0 mph /  1.6 km/h 82 % 0.00 in /  0 mm
03:55 37.2 °F /  2.9 °C 32.0 °F /  0 °C 30.36 in /  1028 hPa Calm   1.0 mph /  1.6 km/h 81 % 0.00 in /  0 mm
04:00 37.4 °F /  3 °C 31.8 °F /  -0.1 °C 30.37 in /  1028.3 hPa Calm   1.0 mph /  1.6 km/h 80 % 0.00 in /  0 mm
04:05 37.9 °F /  3.3 °C 31.6 °F /  -0.2 °C 30.37 in /  1028.3 hPa Calm   1.0 mph /  1.6 km/h 78 % 0.00 in /  0 mm
04:11 38.3 °F /  3.5 °C 31.6 °F /  -0.2 °C 30.37 in /  1028.3 hPa Calm   1.0 mph /  1.6 km/h 77 % 0.00 in /  0 mm
04:16 38.5 °F /  3.6 °C 31.6 °F /  -0.2 °C 30.37 in /  1028.3 hPa Calm   1.0 mph /  1.6 km/h 76 % 0.00 in /  0 mm
04:21 38.7 °F /  3.7 °C 31.5 °F /  -0.3 °C 30.37 in /  1028.3 hPa Calm   1.0 mph /  1.6 km/h 75 % 0.00 in /  0 mm
04:26 38.5 °F /  3.6 °C 31.3 °F /  -0.4 °C 30.37 in /  1028.3 hPa Calm   1.0 mph /  1.6 km/h 75 % 0.00 in /  0 mm
04:31 38.5 °F /  3.6 °C 31.3 °F /  -0.4 °C 30.37 in /  1028.3 hPa Calm   1.0 mph /  1.6 km/h 75 % 0.00 in /  0 mm
04:36 38.5 °F /  3.6 °C 31.3 °F /  -0.4 °C 30.37 in /  1028.3 hPa Calm   2.0 mph /  3.2 km/h 75 % 0.00 in /  0 mm
04:41 38.5 °F /  3.6 °C 30.9 °F /  -0.6 °C 30.37 in /  1028.3 hPa Calm   2.0 mph /  3.2 km/h 74 % 0.00 in /  0 mm
04:46 38.7 °F /  3.7 °C 31.1 °F /  -0.5 °C 30.37 in /  1028.3 hPa NNW 1.0 mph /  1.6 km/h 2.0 mph /  3.2 km/h 74 % 0.00 in /  0 mm
04:51 38.7 °F /  3.7 °C 31.1 °F /  -0.5 °C 30.38 in /  1028.7 hPa Calm   2.0 mph /  3.2 km/h 74 % 0.00 in /  0 mm
04:56 38.8 °F /  3.8 °C 30.9 °F /  -0.6 °C 30.38 in /  1028.7 hPa NNW 1.0 mph /  1.6 km/h 2.0 mph /  3.2 km/h 73 % 0.00 in /  0 mm
05:01 39.0 °F /  3.9 °C 31.1 °F /  -0.5 °C 30.38 in /  1028.7 hPa Calm   2.0 mph /  3.2 km/h 73 % 0.00 in /  0 mm
05:06 39.0 °F /  3.9 °C 30.7 °F /  -0.7 °C 30.38 in /  1028.7 hPa Calm   2.0 mph /  3.2 km/h 72 % 0.00 in /  0 mm
05:11 39.0 °F /  3.9 °C 30.7 °F /  -0.7 °C 30.38 in /  1028.7 hPa Calm   2.0 mph /  3.2 km/h 72 % 0.00 in /  0 mm
05:16 39.2 °F /  4 °C 30.9 °F /  -0.6 °C 30.38 in /  1028.7 hPa Calm   1.0 mph /  1.6 km/h 72 % 0.00 in /  0 mm
05:21 39.2 °F /  4 °C 30.6 °F /  -0.8 °C 30.38 in /  1028.7 hPa Calm   1.0 mph /  1.6 km/h 71 % 0.00 in /  0 mm
05:26 39.4 °F /  4.1 °C 30.7 °F /  -0.7 °C 30.38 in /  1028.7 hPa Calm   1.0 mph /  1.6 km/h 71 % 0.00 in /  0 mm
05:31 39.2 °F /  4 °C 30.6 °F /  -0.8 °C 30.39 in /  1029 hPa Calm   1.0 mph /  1.6 km/h 71 % 0.00 in /  0 mm
05:36 39.0 °F /  3.9 °C 30.0 °F /  -1.1 °C 30.39 in /  1029 hPa Calm   1.0 mph /  1.6 km/h 70 % 0.00 in /  0 mm
05:41 38.8 °F /  3.8 °C 30.2 °F /  -1 °C 30.39 in /  1029 hPa Calm   1.0 mph /  1.6 km/h 71 % 0.00 in /  0 mm
05:46 38.7 °F /  3.7 °C 30.0 °F /  -1.1 °C 30.39 in /  1029 hPa Calm   1.0 mph /  1.6 km/h 71 % 0.00 in /  0 mm
05:51 38.8 °F /  3.8 °C 30.6 °F /  -0.8 °C 30.39 in /  1029 hPa Calm   1.0 mph /  1.6 km/h 72 % 0.00 in /  0 mm
05:56 38.7 °F /  3.7 °C 30.4 °F /  -0.9 °C 30.40 in /  1029.3 hPa Calm   1.0 mph /  1.6 km/h 72 % 0.00 in /  0 mm
06:01 38.7 °F /  3.7 °C 30.0 °F /  -1.1 °C 30.40 in /  1029.3 hPa Calm   1.0 mph /  1.6 km/h 71 % 0.00 in /  0 mm
06:06 38.7 °F /  3.7 °C 30.0 °F /  -1.1 °C 30.40 in /  1029.3 hPa Calm   1.0 mph /  1.6 km/h 71 % 0.00 in /  0 mm
06:11 38.7 °F /  3.7 °C 30.0 °F /  -1.1 °C 30.40 in /  1029.3 hPa Calm   2.0 mph /  3.2 km/h 71 % 0.00 in /  0 mm
06:17 38.7 °F /  3.7 °C 30.0 °F /  -1.1 °C 30.40 in /  1029.3 hPa NNW 2.0 mph /  3.2 km/h 2.0 mph /  3.2 km/h 71 % 0.00 in /  0 mm
06:22 38.8 °F /  3.8 °C 30.2 °F /  -1 °C 30.40 in /  1029.3 hPa North 1.0 mph /  1.6 km/h 2.0 mph /  3.2 km/h 71 % 0.00 in /  0 mm
06:27 38.8 °F /  3.8 °C 29.8 °F /  -1.2 °C 30.40 in /  1029.3 hPa Calm   2.0 mph /  3.2 km/h 70 % 0.00 in /  0 mm
06:29 38.8 °F /  3.8 °C 29.8 °F /  -1.2 °C 30.40 in /  1029.3 hPa Calm   2.0 mph /  3.2 km/h 70 % 0.00 in /  0 mm
06:34 39.0 °F /  3.9 °C 30.0 °F /  -1.1 °C 30.40 in /  1029.3 hPa Calm   2.0 mph /  3.2 km/h 70 % 0.00 in /  0 mm
06:39 39.2 °F /  4 °C 29.8 °F /  -1.2 °C 30.41 in /  1029.7 hPa Calm   1.0 mph /  1.6 km/h 69 % 0.00 in /  0 mm
06:44 39.4 °F /  4.1 °C 30.0 °F /  -1.1 °C 30.41 in /  1029.7 hPa Calm   1.0 mph /  1.6 km/h 69 % 0.00 in /  0 mm
06:49 39.6 °F /  4.2 °C 29.8 °F /  -1.2 °C 30.41 in /  1029.7 hPa Calm   2.0 mph /  3.2 km/h 68 % 0.00 in /  0 mm
06:54 39.9 °F /  4.4 °C 29.8 °F /  -1.2 °C 30.42 in /  1030 hPa North 1.0 mph /  1.6 km/h 2.0 mph /  3.2 km/h 67 % 0.00 in /  0 mm
06:59 40.3 °F /  4.6 °C 29.8 °F /  -1.2 °C 30.42 in /  1030 hPa North 1.0 mph /  1.6 km/h 2.0 mph /  3.2 km/h 66 % 0.00 in /  0 mm
07:04 40.6 °F /  4.8 °C 29.8 °F /  -1.2 °C 30.42 in /  1030 hPa Calm   2.0 mph /  3.2 km/h 65 % 0.00 in /  0 mm
07:09 40.8 °F /  4.9 °C 29.7 °F /  -1.3 °C 30.42 in /  1030 hPa Calm   4.0 mph /  6.4 km/h 64 % 0.00 in /  0 mm
07:19 40.8 °F /  4.9 °C 29.7 °F /  -1.3 °C 30.43 in /  1030.4 hPa North 1.0 mph /  1.6 km/h 4.0 mph /  6.4 km/h 64 % 0.00 in /  0 mm
07:24 40.8 °F /  4.9 °C 29.7 °F /  -1.3 °C 30.43 in /  1030.4 hPa Calm   2.0 mph /  3.2 km/h 64 % 0.00 in /  0 mm
07:29 41.0 °F /  5 °C 29.8 °F /  -1.2 °C 30.43 in /  1030.4 hPa North 2.0 mph /  3.2 km/h 2.0 mph /  3.2 km/h 64 % 0.00 in /  0 mm
07:34 41.2 °F /  5.1 °C 30.0 °F /  -1.1 °C 30.43 in /  1030.4 hPa Calm   2.0 mph /  3.2 km/h 64 % 0.00 in /  0 mm
07:39 41.2 °F /  5.1 °C 30.0 °F /  -1.1 °C 30.43 in /  1030.4 hPa NNE 1.0 mph /  1.6 km/h 2.0 mph /  3.2 km/h 64 % 0.00 in /  0 mm
07:44 41.2 °F /  5.1 °C 30.0 °F /  -1.1 °C 30.44 in /  1030.7 hPa North 2.0 mph /  3.2 km/h 2.0 mph /  3.2 km/h 64 % 0.00 in /  0 mm
07:55 41.7 °F /  5.4 °C 30.4 °F /  -0.9 °C 30.44 in /  1030.7 hPa Calm   3.0 mph /  4.8 km/h 64 % 0.00 in /  0 mm
08:00 42.4 °F /  5.8 °C 31.1 °F /  -0.5 °C 30.44 in /  1030.7 hPa NE 1.0 mph /  1.6 km/h 3.0 mph /  4.8 km/h 64 % 0.00 in /  0 mm
08:05 43.0 °F /  6.1 °C 31.3 °F /  -0.4 °C 30.44 in /  1030.7 hPa Calm   3.0 mph /  4.8 km/h 63 % 0.00 in /  0 mm
08:15 44.1 °F /  6.7 °C 31.5 °F /  -0.3 °C 30.45 in /  1031 hPa Calm   3.0 mph /  4.8 km/h 61 % 0.00 in /  0 mm
08:20 44.8 °F /  7.1 °C 31.8 °F /  -0.1 °C 30.44 in /  1030.7 hPa ENE 1.0 mph /  1.6 km/h 3.0 mph /  4.8 km/h 60 % 0.00 in /  0 mm
08:25 45.3 °F /  7.4 °C 32.2 °F /  0.1 °C 30.45 in /  1031 hPa Calm   3.0 mph /  4.8 km/h 60 % 0.00 in /  0 mm
08:30 45.9 °F /  7.7 °C 32.0 °F /  0 °C 30.45 in /  1031 hPa Calm   3.0 mph /  4.8 km/h 58 % 0.00 in /  0 mm
08:35 46.6 °F /  8.1 °C 32.5 °F /  0.3 °C 30.45 in /  1031 hPa Calm   3.0 mph /  4.8 km/h 58 % 0.00 in /  0 mm
08:40 47.1 °F /  8.4 °C 31.8 °F /  -0.1 °C 30.45 in /  1031 hPa Calm   5.0 mph /  8 km/h 55 % 0.00 in /  0 mm
08:45 47.7 °F /  8.7 °C 32.4 °F /  0.2 °C 30.45 in /  1031 hPa Calm   5.0 mph /  8 km/h 55 % 0.00 in /  0 mm
08:50 48.4 °F /  9.1 °C 32.0 °F /  0 °C 30.46 in /  1031.4 hPa Calm   5.0 mph /  8 km/h 53 % 0.00 in /  0 mm
08:55 49.1 °F /  9.5 °C 31.8 °F /  -0.1 °C 30.46 in /  1031.4 hPa NNW 3.0 mph /  4.8 km/h 7.0 mph /  11.3 km/h 51 % 0.00 in /  0 mm
09:00 49.6 °F /  9.8 °C 31.3 °F /  -0.4 °C 30.46 in /  1031.4 hPa East 3.0 mph /  4.8 km/h 7.0 mph /  11.3 km/h 49 % 0.00 in /  0 mm
09:05 49.8 °F /  9.9 °C 31.5 °F /  -0.3 °C 30.46 in /  1031.4 hPa NNW 1.0 mph /  1.6 km/h 7.0 mph /  11.3 km/h 49 % 0.00 in /  0 mm
09:10 50.2 °F /  10.1 °C 32.2 °F /  0.1 °C 30.46 in /  1031.4 hPa Calm   7.0 mph /  11.3 km/h 50 % 0.00 in /  0 mm
09:15 50.5 °F /  10.3 °C 32.0 °F /  0 °C 30.46 in /  1031.4 hPa NNW 4.0 mph /  6.4 km/h 7.0 mph /  11.3 km/h 49 % 0.00 in /  0 mm
09:20 51.1 °F /  10.6 °C 32.0 °F /  0 °C 30.46 in /  1031.4 hPa NE 4.0 mph /  6.4 km/h 9.0 mph /  14.5 km/h 48 % 0.00 in /  0 mm
09:25 51.3 °F /  10.7 °C 31.6 °F /  -0.2 °C 30.47 in /  1031.7 hPa NNE 4.0 mph /  6.4 km/h 9.0 mph /  14.5 km/h 47 % 0.00 in /  0 mm
09:30 51.3 °F /  10.7 °C 31.6 °F /  -0.2 °C 30.47 in /  1031.7 hPa North 5.0 mph /  8 km/h 9.0 mph /  14.5 km/h 47 % 0.00 in /  0 mm
09:35 51.6 °F /  10.9 °C 31.5 °F /  -0.3 °C 30.47 in /  1031.7 hPa North 5.0 mph /  8 km/h 7.0 mph /  11.3 km/h 46 % 0.00 in /  0 mm
09:40 52.3 °F /  11.3 °C 32.7 °F /  0.4 °C 30.47 in /  1031.7 hPa NNW 1.0 mph /  1.6 km/h 7.0 mph /  11.3 km/h 47 % 0.00 in /  0 mm
09:45 52.9 °F /  11.6 °C 32.2 °F /  0.1 °C 30.47 in /  1031.7 hPa ENE 4.0 mph /  6.4 km/h 7.0 mph /  11.3 km/h 45 % 0.00 in /  0 mm
09:51 53.2 °F /  11.8 °C 31.8 °F /  -0.1 °C 30.47 in /  1031.7 hPa East 4.0 mph /  6.4 km/h 7.0 mph /  11.3 km/h 44 % 0.00 in /  0 mm
10:01 53.4 °F /  11.9 °C 32.5 °F /  0.3 °C 30.48 in /  1032.1 hPa ENE 4.0 mph /  6.4 km/h 10.0 mph /  16.1 km/h 45 % 0.00 in /  0 mm
10:06 54.1 °F /  12.3 °C 32.2 °F /  0.1 °C 30.48 in /  1032.1 hPa North 6.0 mph /  9.7 km/h 10.0 mph /  16.1 km/h 43 % 0.00 in /  0 mm
10:11 54.7 °F /  12.6 °C 32.5 °F /  0.3 °C 30.48 in /  1032.1 hPa Calm   10.0 mph /  16.1 km/h 43 % 0.00 in /  0 mm
10:16 55.6 °F /  13.1 °C 32.2 °F /  0.1 °C 30.48 in /  1032.1 hPa NNW 1.0 mph /  1.6 km/h 6.0 mph /  9.7 km/h 41 % 0.00 in /  0 mm
10:21 56.1 °F /  13.4 °C 32.2 °F /  0.1 °C 30.48 in /  1032.1 hPa ENE 2.0 mph /  3.2 km/h 6.0 mph /  9.7 km/h 40 % 0.00 in /  0 mm
10:26 55.9 °F /  13.3 °C 31.3 °F /  -0.4 °C 30.48 in /  1032.1 hPa NNW 2.0 mph /  3.2 km/h 8.0 mph /  12.9 km/h 39 % 0.00 in /  0 mm
10:31 56.3 °F /  13.5 °C 31.1 °F /  -0.5 °C 30.48 in /  1032.1 hPa East 2.0 mph /  3.2 km/h 8.0 mph /  12.9 km/h 38 % 0.00 in /  0 mm
10:36 56.7 °F /  13.7 °C 32.0 °F /  0 °C 30.48 in /  1032.1 hPa NE 2.0 mph /  3.2 km/h 8.0 mph /  12.9 km/h 39 % 0.00 in /  0 mm
10:41 57.0 °F /  13.9 °C 30.4 °F /  -0.9 °C 30.48 in /  1032.1 hPa NE 8.0 mph /  12.9 km/h 10.0 mph /  16.1 km/h 36 % 0.00 in /  0 mm
10:46 57.0 °F /  13.9 °C 30.4 °F /  -0.9 °C 30.48 in /  1032.1 hPa North 5.0 mph /  8 km/h 10.0 mph /  16.1 km/h 36 % 0.00 in /  0 mm
10:51 57.2 °F /  14 °C 30.6 °F /  -0.8 °C 30.48 in /  1032.1 hPa North 8.0 mph /  12.9 km/h 10.0 mph /  16.1 km/h 36 % 0.00 in /  0 mm
10:56 57.2 °F /  14 °C 29.8 °F /  -1.2 °C 30.48 in /  1032.1 hPa NNW 6.0 mph /  9.7 km/h 10.0 mph /  16.1 km/h 35 % 0.00 in /  0 mm
11:01 57.4 °F /  14.1 °C 30.0 °F /  -1.1 °C 30.48 in /  1032.1 hPa NNE 4.0 mph /  6.4 km/h 10.0 mph /  16.1 km/h 35 % 0.00 in /  0 mm
11:06 57.7 °F /  14.3 °C 28.8 °F /  -1.8 °C 30.48 in /  1032.1 hPa North 3.0 mph /  4.8 km/h 11.0 mph /  17.7 km/h 33 % 0.00 in /  0 mm
11:11 57.9 °F /  14.4 °C 29.7 °F /  -1.3 °C 30.48 in /  1032.1 hPa SE 1.0 mph /  1.6 km/h 11.0 mph /  17.7 km/h 34 % 0.00 in /  0 mm
11:26 59.2 °F /  15.1 °C 30.0 °F /  -1.1 °C 30.47 in /  1031.7 hPa NE 2.0 mph /  3.2 km/h 9.0 mph /  14.5 km/h 33 % 0.00 in /  0 mm
11:36 59.4 °F /  15.2 °C 29.5 °F /  -1.4 °C 30.47 in /  1031.7 hPa ENE 4.0 mph /  6.4 km/h 10.0 mph /  16.1 km/h 32 % 0.00 in /  0 mm
11:42 59.9 °F /  15.5 °C 30.7 °F /  -0.7 °C 30.46 in /  1031.4 hPa North 1.0 mph /  1.6 km/h 10.0 mph /  16.1 km/h 33 % 0.00 in /  0 mm
11:47 60.3 °F /  15.7 °C 30.2 °F /  -1 °C 30.46 in /  1031.4 hPa East 6.0 mph /  9.7 km/h 10.0 mph /  16.1 km/h 32 % 0.00 in /  0 mm
11:52 60.4 °F /  15.8 °C 30.4 °F /  -0.9 °C 30.46 in /  1031.4 hPa ESE 2.0 mph /  3.2 km/h 8.0 mph /  12.9 km/h 32 % 0.00 in /  0 mm
11:57 60.6 °F /  15.9 °C 29.8 °F /  -1.2 °C 30.46 in /  1031.4 hPa NE 4.0 mph /  6.4 km/h 7.0 mph /  11.3 km/h 31 % 0.00 in /  0 mm
12:02 60.6 °F /  15.9 °C 29.8 °F /  -1.2 °C 30.46 in /  1031.4 hPa NNW 1.0 mph /  1.6 km/h 7.0 mph /  11.3 km/h 31 % 0.00 in /  0 mm
12:07 60.4 °F /  15.8 °C 29.7 °F /  -1.3 °C 30.45 in /  1031 hPa NE 1.0 mph /  1.6 km/h 7.0 mph /  11.3 km/h 31 % 0.00 in /  0 mm
12:12 61.0 °F /  16.1 °C 29.3 °F /  -1.5 °C 30.45 in /  1031 hPa NNW 2.0 mph /  3.2 km/h 7.0 mph /  11.3 km/h 30 % 0.00 in /  0 mm
12:17 61.2 °F /  16.2 °C 29.5 °F /  -1.4 °C 30.45 in /  1031 hPa NNE 2.0 mph /  3.2 km/h 10.0 mph /  16.1 km/h 30 % 0.00 in /  0 mm
12:22 61.2 °F /  16.2 °C 29.5 °F /  -1.4 °C 30.45 in /  1031 hPa WNW 1.0 mph /  1.6 km/h 10.0 mph /  16.1 km/h 30 % 0.00 in /  0 mm
12:27 61.3 °F /  16.3 °C 28.8 °F /  -1.8 °C 30.45 in /  1031 hPa SE 4.0 mph /  6.4 km/h 10.0 mph /  16.1 km/h 29 % 0.00 in /  0 mm
12:32 61.2 °F /  16.2 °C 29.5 °F /  -1.4 °C 30.44 in /  1030.7 hPa East 1.0 mph /  1.6 km/h 9.0 mph /  14.5 km/h 30 % 0.00 in /  0 mm
12:37 61.5 °F /  16.4 °C 28.9 °F /  -1.7 °C 30.44 in /  1030.7 hPa NW 1.0 mph /  1.6 km/h 9.0 mph /  14.5 km/h 29 % 0.00 in /  0 mm
12:42 62.1 °F /  16.7 °C 30.2 °F /  -1 °C 30.44 in /  1030.7 hPa NE 3.0 mph /  4.8 km/h 9.0 mph /  14.5 km/h 30 % 0.00 in /  0 mm
12:47 62.4 °F /  16.9 °C 28.9 °F /  -1.7 °C 30.43 in /  1030.4 hPa West 2.0 mph /  3.2 km/h 8.0 mph /  12.9 km/h 28 % 0.00 in /  0 mm
12:52 62.8 °F /  17.1 °C 29.1 °F /  -1.6 °C 30.43 in /  1030.4 hPa East 2.0 mph /  3.2 km/h 8.0 mph /  12.9 km/h 28 % 0.00 in /  0 mm
12:57 62.4 °F /  16.9 °C 28.9 °F /  -1.7 °C 30.43 in /  1030.4 hPa Calm   6.0 mph /  9.7 km/h 28 % 0.00 in /  0 mm
13:02 62.2 °F /  16.8 °C 29.7 °F /  -1.3 °C 30.43 in /  1030.4 hPa East 1.0 mph /  1.6 km/h 7.0 mph /  11.3 km/h 29 % 0.00 in /  0 mm
13:07 62.8 °F /  17.1 °C 31.6 °F /  -0.2 °C 30.42 in /  1030 hPa Calm   7.0 mph /  11.3 km/h 31 % 0.00 in /  0 mm
13:12 63.3 °F /  17.4 °C 29.7 °F /  -1.3 °C 30.42 in /  1030 hPa SSE 3.0 mph /  4.8 km/h 7.0 mph /  11.3 km/h 28 % 0.00 in /  0 mm
13:17 63.5 °F /  17.5 °C 29.8 °F /  -1.2 °C 30.42 in /  1030 hPa ENE 3.0 mph /  4.8 km/h 6.0 mph /  9.7 km/h 28 % 0.00 in /  0 mm
13:22 63.7 °F /  17.6 °C 30.7 °F /  -0.7 °C 30.41 in /  1029.7 hPa SE 1.0 mph /  1.6 km/h 5.0 mph /  8 km/h 29 % 0.00 in /  0 mm
13:27 63.3 °F /  17.4 °C 29.7 °F /  -1.3 °C 30.41 in /  1029.7 hPa SSE 2.0 mph /  3.2 km/h 7.0 mph /  11.3 km/h 28 % 0.00 in /  0 mm
13:32 63.7 °F /  17.6 °C 31.6 °F /  -0.2 °C 30.40 in /  1029.3 hPa Calm   7.0 mph /  11.3 km/h 30 % 0.00 in /  0 mm
13:42 64.2 °F /  17.9 °C 28.6 °F /  -1.9 °C 30.40 in /  1029.3 hPa NNW 2.0 mph /  3.2 km/h 6.0 mph /  9.7 km/h 26 % 0.00 in /  0 mm
13:47 63.9 °F /  17.7 °C 29.3 °F /  -1.5 °C 30.40 in /  1029.3 hPa ENE 1.0 mph /  1.6 km/h 7.0 mph /  11.3 km/h 27 % 0.00 in /  0 mm
13:52 64.0 °F /  17.8 °C 30.2 °F /  -1 °C 30.40 in /  1029.3 hPa NW 1.0 mph /  1.6 km/h 7.0 mph /  11.3 km/h 28 % 0.00 in /  0 mm
13:57 64.2 °F /  17.9 °C 30.4 °F /  -0.9 °C 30.40 in /  1029.3 hPa East 4.0 mph /  6.4 km/h 7.0 mph /  11.3 km/h 28 % 0.00 in /  0 mm
14:02 64.2 °F /  17.9 °C 30.4 °F /  -0.9 °C 30.39 in /  1029 hPa ENE 3.0 mph /  4.8 km/h 7.0 mph /  11.3 km/h 28 % 0.00 in /  0 mm
14:07 64.4 °F /  18 °C 28.8 °F /  -1.8 °C 30.39 in /  1029 hPa Calm   7.0 mph /  11.3 km/h 26 % 0.00 in /  0 mm
14:12 64.0 °F /  17.8 °C 28.4 °F /  -2 °C 30.39 in /  1029 hPa NW 4.0 mph /  6.4 km/h 6.0 mph /  9.7 km/h 26 % 0.00 in /  0 mm
14:17 63.9 °F /  17.7 °C 28.2 °F /  -2.1 °C 30.39 in /  1029 hPa NW 1.0 mph /  1.6 km/h 7.0 mph /  11.3 km/h 26 % 0.00 in /  0 mm
14:27 64.9 °F /  18.3 °C 28.2 °F /  -2.1 °C 30.38 in /  1028.7 hPa Calm   7.0 mph /  11.3 km/h 25 % 0.00 in /  0 mm
14:32 65.1 °F /  18.4 °C 29.3 °F /  -1.5 °C 30.38 in /  1028.7 hPa North 3.0 mph /  4.8 km/h 5.0 mph /  8 km/h 26 % 0.00 in /  0 mm
14:37 65.5 °F /  18.6 °C 29.7 °F /  -1.3 °C 30.38 in /  1028.7 hPa NNE 1.0 mph /  1.6 km/h 5.0 mph /  8 km/h 26 % 0.00 in /  0 mm
14:42 65.5 °F /  18.6 °C 28.8 °F /  -1.8 °C 30.38 in /  1028.7 hPa NNW 1.0 mph /  1.6 km/h 5.0 mph /  8 km/h 25 % 0.00 in /  0 mm
14:47 65.3 °F /  18.5 °C 29.5 °F /  -1.4 °C 30.38 in /  1028.7 hPa ENE 3.0 mph /  4.8 km/h 6.0 mph /  9.7 km/h 26 % 0.00 in /  0 mm
14:52 65.1 °F /  18.4 °C 29.3 °F /  -1.5 °C 30.38 in /  1028.7 hPa ESE 2.0 mph /  3.2 km/h 6.0 mph /  9.7 km/h 26 % 0.00 in /  0 mm
14:57 65.1 °F /  18.4 °C 29.3 °F /  -1.5 °C 30.38 in /  1028.7 hPa East 3.0 mph /  4.8 km/h 6.0 mph /  9.7 km/h 26 % 0.00 in /  0 mm
15:02 65.1 °F /  18.4 °C 29.3 °F /  -1.5 °C 30.38 in /  1028.7 hPa ESE 1.0 mph /  1.6 km/h 6.0 mph /  9.7 km/h 26 % 0.00 in /  0 mm
15:07 65.5 °F /  18.6 °C 29.7 °F /  -1.3 °C 30.38 in /  1028.7 hPa NNW 3.0 mph /  4.8 km/h 6.0 mph /  9.7 km/h 26 % 0.00 in /  0 mm
15:12 65.5 °F /  18.6 °C 28.8 °F /  -1.8 °C 30.38 in /  1028.7 hPa NNW 4.0 mph /  6.4 km/h 6.0 mph /  9.7 km/h 25 % 0.00 in /  0 mm
15:17 65.3 °F /  18.5 °C 29.5 °F /  -1.4 °C 30.38 in /  1028.7 hPa NNW 3.0 mph /  4.8 km/h 5.0 mph /  8 km/h 26 % 0.00 in /  0 mm
15:22 65.8 °F /  18.8 °C 30.0 °F /  -1.1 °C 30.38 in /  1028.7 hPa NNW 1.0 mph /  1.6 km/h 5.0 mph /  8 km/h 26 % 0.00 in /  0 mm
15:27 65.5 °F /  18.6 °C 28.8 °F /  -1.8 °C 30.38 in /  1028.7 hPa ENE 2.0 mph /  3.2 km/h 7.0 mph /  11.3 km/h 25 % 0.00 in /  0 mm
15:32 65.7 °F /  18.7 °C 28.9 °F /  -1.7 °C 30.38 in /  1028.7 hPa NNE 1.0 mph /  1.6 km/h 7.0 mph /  11.3 km/h 25 % 0.00 in /  0 mm
15:37 65.7 °F /  18.7 °C 28.9 °F /  -1.7 °C 30.38 in /  1028.7 hPa NW 1.0 mph /  1.6 km/h 7.0 mph /  11.3 km/h 25 % 0.00 in /  0 mm
15:42 65.7 °F /  18.7 °C 28.9 °F /  -1.7 °C 30.37 in /  1028.3 hPa Calm   4.0 mph /  6.4 km/h 25 % 0.00 in /  0 mm
15:47 66.0 °F /  18.9 °C 29.1 °F /  -1.6 °C 30.38 in /  1028.7 hPa Calm   3.0 mph /  4.8 km/h 25 % 0.00 in /  0 mm
15:52 66.6 °F /  19.2 °C 29.7 °F /  -1.3 °C 30.38 in /  1028.7 hPa Calm   4.0 mph /  6.4 km/h 25 % 0.00 in /  0 mm
15:57 66.4 °F /  19.1 °C 29.5 °F /  -1.4 °C 30.38 in /  1028.7 hPa East 2.0 mph /  3.2 km/h 4.0 mph /  6.4 km/h 25 % 0.00 in /  0 mm
16:02 65.8 °F /  18.8 °C 28.9 °F /  -1.7 °C 30.38 in /  1028.7 hPa ESE 1.0 mph /  1.6 km/h 4.0 mph /  6.4 km/h 25 % 0.00 in /  0 mm
16:07 65.8 °F /  18.8 °C 28.9 °F /  -1.7 °C 30.38 in /  1028.7 hPa NNE 2.0 mph /  3.2 km/h 4.0 mph /  6.4 km/h 25 % 0.00 in /  0 mm
16:12 65.8 °F /  18.8 °C 28.0 °F /  -2.2 °C 30.38 in /  1028.7 hPa WNW 1.0 mph /  1.6 km/h 4.0 mph /  6.4 km/h 24 % 0.00 in /  0 mm
16:17 65.7 °F /  18.7 °C 28.9 °F /  -1.7 °C 30.38 in /  1028.7 hPa ENE 2.0 mph /  3.2 km/h 4.0 mph /  6.4 km/h 25 % 0.00 in /  0 mm
16:22 65.5 °F /  18.6 °C 28.8 °F /  -1.8 °C 30.38 in /  1028.7 hPa WNW 2.0 mph /  3.2 km/h 4.0 mph /  6.4 km/h 25 % 0.00 in /  0 mm
16:27 65.5 °F /  18.6 °C 28.8 °F /  -1.8 °C 30.38 in /  1028.7 hPa NE 2.0 mph /  3.2 km/h 3.0 mph /  4.8 km/h 25 % 0.00 in /  0 mm
16:32 65.3 °F /  18.5 °C 28.6 °F /  -1.9 °C 30.38 in /  1028.7 hPa NE 1.0 mph /  1.6 km/h 3.0 mph /  4.8 km/h 25 % 0.00 in /  0 mm
16:37 65.3 °F /  18.5 °C 29.5 °F /  -1.4 °C 30.38 in /  1028.7 hPa Calm   3.0 mph /  4.8 km/h 26 % 0.00 in /  0 mm
16:42 65.1 °F /  18.4 °C 29.3 °F /  -1.5 °C 30.38 in /  1028.7 hPa ENE 1.0 mph /  1.6 km/h 3.0 mph /  4.8 km/h 26 % 0.00 in /  0 mm
16:47 65.1 °F /  18.4 °C 28.4 °F /  -2 °C 30.38 in /  1028.7 hPa East 1.0 mph /  1.6 km/h 3.0 mph /  4.8 km/h 25 % 0.00 in /  0 mm
16:52 64.8 °F /  18.2 °C 29.1 °F /  -1.6 °C 30.38 in /  1028.7 hPa Calm   3.0 mph /  4.8 km/h 26 % 0.00 in /  0 mm
16:57 64.6 °F /  18.1 °C 28.9 °F /  -1.7 °C 30.39 in /  1029 hPa ESE 1.0 mph /  1.6 km/h 3.0 mph /  4.8 km/h 26 % 0.00 in /  0 mm
17:02 64.4 °F /  18 °C 29.7 °F /  -1.3 °C 30.39 in /  1029 hPa Calm   3.0 mph /  4.8 km/h 27 % 0.00 in /  0 mm
17:07 64.0 °F /  17.8 °C 29.3 °F /  -1.5 °C 30.39 in /  1029 hPa NNW 3.0 mph /  4.8 km/h 3.0 mph /  4.8 km/h 27 % 0.00 in /  0 mm
17:12 63.7 °F /  17.6 °C 28.2 °F /  -2.1 °C 30.39 in /  1029 hPa NNW 2.0 mph /  3.2 km/h 3.0 mph /  4.8 km/h 26 % 0.00 in /  0 mm
17:17 63.3 °F /  17.4 °C 28.8 °F /  -1.8 °C 30.39 in /  1029 hPa NW 2.0 mph /  3.2 km/h 3.0 mph /  4.8 km/h 27 % 0.00 in /  0 mm
17:22 63.1 °F /  17.3 °C 29.5 °F /  -1.4 °C 30.39 in /  1029 hPa Calm   4.0 mph /  6.4 km/h 28 % 0.00 in /  0 mm
17:27 62.8 °F /  17.1 °C 29.1 °F /  -1.6 °C 30.39 in /  1029 hPa East 1.0 mph /  1.6 km/h 4.0 mph /  6.4 km/h 28 % 0.00 in /  0 mm
17:32 62.4 °F /  16.9 °C 28.9 °F /  -1.7 °C 30.39 in /  1029 hPa Calm   4.0 mph /  6.4 km/h 28 % 0.00 in /  0 mm
17:37 62.1 °F /  16.7 °C 28.6 °F /  -1.9 °C 30.40 in /  1029.3 hPa Calm   2.0 mph /  3.2 km/h 28 % 0.00 in /  0 mm
17:42 61.5 °F /  16.4 °C 28.9 °F /  -1.7 °C 30.40 in /  1029.3 hPa Calm   1.0 mph /  1.6 km/h 29 % 0.00 in /  0 mm
17:47 61.2 °F /  16.2 °C 29.5 °F /  -1.4 °C 30.40 in /  1029.3 hPa Calm   1.0 mph /  1.6 km/h 30 % 0.00 in /  0 mm
17:52 60.6 °F /  15.9 °C 29.8 °F /  -1.2 °C 30.40 in /  1029.3 hPa Calm   1.0 mph /  1.6 km/h 31 % 0.00 in /  0 mm
17:57 60.3 °F /  15.7 °C 30.2 °F /  -1 °C 30.40 in /  1029.3 hPa Calm   1.0 mph /  1.6 km/h 32 % 0.00 in /  0 mm
18:02 59.4 °F /  15.2 °C 30.2 °F /  -1 °C 30.40 in /  1029.3 hPa Calm   1.0 mph /  1.6 km/h 33 % 0.00 in /  0 mm
18:07 58.3 °F /  14.6 °C 30.0 °F /  -1.1 °C 30.40 in /  1029.3 hPa Calm   1.0 mph /  1.6 km/h 34 % 0.00 in /  0 mm
18:12 57.2 °F /  14 °C 29.8 °F /  -1.2 °C 30.40 in /  1029.3 hPa Calm     35 % 0.00 in /  0 mm
18:17 56.1 °F /  13.4 °C 30.2 °F /  -1 °C 30.40 in /  1029.3 hPa Calm     37 % 0.00 in /  0 mm
18:22 55.2 °F /  12.9 °C 31.3 °F /  -0.4 °C 30.40 in /  1029.3 hPa Calm     40 % 0.00 in /  0 mm
18:27 54.3 °F /  12.4 °C 31.1 °F /  -0.5 °C 30.41 in /  1029.7 hPa Calm     41 % 0.00 in /  0 mm
18:32 53.4 °F /  11.9 °C 31.5 °F /  -0.3 °C 30.41 in /  1029.7 hPa Calm     43 % 0.00 in /  0 mm
18:37 52.9 °F /  11.6 °C 32.7 °F /  0.4 °C 30.41 in /  1029.7 hPa Calm   1.0 mph /  1.6 km/h 46 % 0.00 in /  0 mm
18:42 52.9 °F /  11.6 °C 33.3 °F /  0.7 °C 30.41 in /  1029.7 hPa Calm   1.0 mph /  1.6 km/h 47 % 0.00 in /  0 mm
18:47 52.9 °F /  11.6 °C 33.8 °F /  1 °C 30.41 in /  1029.7 hPa Calm   1.0 mph /  1.6 km/h 48 % 0.00 in /  0 mm
18:52 52.5 °F /  11.4 °C 33.4 °F /  0.8 °C 30.41 in /  1029.7 hPa Calm   1.0 mph /  1.6 km/h 48 % 0.00 in /  0 mm
18:57 52.3 °F /  11.3 °C 33.8 °F /  1 °C 30.41 in /  1029.7 hPa Calm   2.0 mph /  3.2 km/h 49 % 0.00 in /  0 mm
19:02 52.0 °F /  11.1 °C 32.9 °F /  0.5 °C 30.41 in /  1029.7 hPa Calm   2.0 mph /  3.2 km/h 48 % 0.00 in /  0 mm
19:07 52.2 °F /  11.2 °C 33.1 °F /  0.6 °C 30.41 in /  1029.7 hPa Calm   2.0 mph /  3.2 km/h 48 % 0.00 in /  0 mm
19:12 52.0 °F /  11.1 °C 32.4 °F /  0.2 °C 30.41 in /  1029.7 hPa Calm   2.0 mph /  3.2 km/h 47 % 0.00 in /  0 mm
19:17 52.0 °F /  11.1 °C 32.4 °F /  0.2 °C 30.41 in /  1029.7 hPa Calm   2.0 mph /  3.2 km/h 47 % 0.00 in /  0 mm
19:22 51.8 °F /  11 °C 32.2 °F /  0.1 °C 30.41 in /  1029.7 hPa Calm   2.0 mph /  3.2 km/h 47 % 0.00 in /  0 mm
19:27 51.6 °F /  10.9 °C 32.0 °F /  0 °C 30.42 in /  1030 hPa Calm   1.0 mph /  1.6 km/h 47 % 0.00 in /  0 mm
19:32 51.1 °F /  10.6 °C 31.6 °F /  -0.2 °C 30.42 in /  1030 hPa Calm   1.0 mph /  1.6 km/h 47 % 0.00 in /  0 mm
19:37 50.0 °F /  10 °C 31.1 °F /  -0.5 °C 30.42 in /  1030 hPa Calm   1.0 mph /  1.6 km/h 48 % 0.00 in /  0 mm
19:42 48.9 °F /  9.4 °C 31.1 °F /  -0.5 °C 30.42 in /  1030 hPa Calm     50 % 0.00 in /  0 mm
19:47 48.0 °F /  8.9 °C 31.3 °F /  -0.4 °C 30.42 in /  1030 hPa Calm     52 % 0.00 in /  0 mm
19:52 47.1 °F /  8.4 °C 30.9 °F /  -0.6 °C 30.42 in /  1030 hPa Calm     53 % 0.00 in /  0 mm
19:57 46.8 °F /  8.2 °C 31.5 °F /  -0.3 °C 30.42 in /  1030 hPa Calm     55 % 0.00 in /  0 mm
20:02 46.0 °F /  7.8 °C 31.3 °F /  -0.4 °C 30.42 in /  1030 hPa Calm     56 % 0.00 in /  0 mm
20:07 45.9 °F /  7.7 °C 32.0 °F /  0 °C 30.42 in /  1030 hPa Calm     58 % 0.00 in /  0 mm
20:12 46.0 °F /  7.8 °C 32.5 °F /  0.3 °C 30.43 in /  1030.4 hPa Calm     59 % 0.00 in /  0 mm
20:17 46.6 °F /  8.1 °C 33.4 °F /  0.8 °C 30.43 in /  1030.4 hPa Calm     60 % 0.00 in /  0 mm
20:22 46.8 °F /  8.2 °C 33.6 °F /  0.9 °C 30.43 in /  1030.4 hPa Calm     60 % 0.00 in /  0 mm
20:27 46.8 °F /  8.2 °C 33.6 °F /  0.9 °C 30.43 in /  1030.4 hPa Calm     60 % 0.00 in /  0 mm
20:32 46.6 °F /  8.1 °C 33.8 °F /  1 °C 30.43 in /  1030.4 hPa Calm     61 % 0.00 in /  0 mm
20:37 46.2 °F /  7.9 °C 33.4 °F /  0.8 °C 30.43 in /  1030.4 hPa Calm     61 % 0.00 in /  0 mm
20:42 45.7 °F /  7.6 °C 33.1 °F /  0.6 °C 30.42 in /  1030 hPa Calm     61 % 0.00 in /  0 mm
20:47 45.0 °F /  7.2 °C 32.4 °F /  0.2 °C 30.43 in /  1030.4 hPa Calm     61 % 0.00 in /  0 mm
20:52 44.1 °F /  6.7 °C 32.4 °F /  0.2 °C 30.42 in /  1030 hPa Calm     63 % 0.00 in /  0 mm
20:57 43.3 °F /  6.3 °C 32.0 °F /  0 °C 30.43 in /  1030.4 hPa Calm     64 % 0.00 in /  0 mm
21:02 42.8 °F /  6 °C 31.8 °F /  -0.1 °C 30.42 in /  1030 hPa Calm     65 % 0.00 in /  0 mm
21:07 42.4 °F /  5.8 °C 32.2 °F /  0.1 °C 30.42 in /  1030 hPa Calm     67 % 0.00 in /  0 mm
21:12 42.1 °F /  5.6 °C 32.4 °F /  0.2 °C 30.42 in /  1030 hPa Calm     68 % 0.00 in /  0 mm
21:17 41.7 °F /  5.4 °C 32.4 °F /  0.2 °C 30.42 in /  1030 hPa Calm     69 % 0.00 in /  0 mm
21:22 41.7 °F /  5.4 °C 33.1 °F /  0.6 °C 30.42 in /  1030 hPa Calm     71 % 0.00 in /  0 mm
21:27 41.7 °F /  5.4 °C 33.1 °F /  0.6 °C 30.42 in /  1030 hPa Calm     71 % 0.00 in /  0 mm
21:32 41.5 °F /  5.3 °C 32.9 °F /  0.5 °C 30.43 in /  1030.4 hPa Calm     71 % 0.00 in /  0 mm
21:37 41.5 °F /  5.3 °C 33.6 °F /  0.9 °C 30.43 in /  1030.4 hPa Calm     73 % 0.00 in /  0 mm
21:42 42.4 °F /  5.8 °C 34.3 °F /  1.3 °C 30.43 in /  1030.4 hPa Calm   1.0 mph /  1.6 km/h 73 % 0.00 in /  0 mm
21:47 42.6 °F /  5.9 °C 34.2 °F /  1.2 °C 30.43 in /  1030.4 hPa Calm   1.0 mph /  1.6 km/h 72 % 0.00 in /  0 mm
21:52 42.4 °F /  5.8 °C 33.6 °F /  0.9 °C 30.43 in /  1030.4 hPa Calm   1.0 mph /  1.6 km/h 71 % 0.00 in /  0 mm
21:57 42.1 °F /  5.6 °C 34.0 °F /  1.1 °C 30.43 in /  1030.4 hPa Calm     73 % 0.00 in /  0 mm
22:02 42.1 °F /  5.6 °C 34.3 °F /  1.3 °C 30.43 in /  1030.4 hPa Calm     74 % 0.00 in /  0 mm
22:07 42.3 °F /  5.7 °C 34.5 °F /  1.4 °C 30.43 in /  1030.4 hPa Calm     74 % 0.00 in /  0 mm
22:12 42.4 °F /  5.8 °C 34.7 °F /  1.5 °C 30.43 in /  1030.4 hPa Calm     74 % 0.00 in /  0 mm
22:17 42.3 °F /  5.7 °C 34.2 °F /  1.2 °C 30.43 in /  1030.4 hPa Calm     73 % 0.00 in /  0 mm
22:22 41.9 °F /  5.5 °C 33.8 °F /  1 °C 30.43 in /  1030.4 hPa Calm     73 % 0.00 in /  0 mm
22:27 41.4 °F /  5.2 °C 33.4 °F /  0.8 °C 30.43 in /  1030.4 hPa Calm     73 % 0.00 in /  0 mm
22:32 41.4 °F /  5.2 °C 33.6 °F /  0.9 °C 30.43 in /  1030.4 hPa Calm   1.0 mph /  1.6 km/h 74 % 0.00 in /  0 mm
22:38 40.8 °F /  4.9 °C 33.3 °F /  0.7 °C 30.43 in /  1030.4 hPa Calm   1.0 mph /  1.6 km/h 74 % 0.00 in /  0 mm
22:43 40.6 °F /  4.8 °C 33.6 °F /  0.9 °C 30.44 in /  1030.7 hPa SE 2.0 mph /  3.2 km/h 2.0 mph /  3.2 km/h 76 % 0.00 in /  0 mm
22:48 40.6 °F /  4.8 °C 34.0 °F /  1.1 °C 30.44 in /  1030.7 hPa Calm   3.0 mph /  4.8 km/h 77 % 0.00 in /  0 mm
22:53 40.6 °F /  4.8 °C 33.6 °F /  0.9 °C 30.43 in /  1030.4 hPa Calm   3.0 mph /  4.8 km/h 76 % 0.00 in /  0 mm
22:58 40.6 °F /  4.8 °C 34.0 °F /  1.1 °C 30.43 in /  1030.4 hPa Calm   3.0 mph /  4.8 km/h 77 % 0.00 in /  0 mm
23:03 40.8 °F /  4.9 °C 34.2 °F /  1.2 °C 30.43 in /  1030.4 hPa Calm     77 % 0.00 in /  0 mm
23:08 40.6 °F /  4.8 °C 34.0 °F /  1.1 °C 30.43 in /  1030.4 hPa Calm     77 % 0.00 in /  0 mm
23:13 40.6 °F /  4.8 °C 34.0 °F /  1.1 °C 30.43 in /  1030.4 hPa Calm     77 % 0.00 in /  0 mm
23:18 40.5 °F /  4.7 °C 34.2 °F /  1.2 °C 30.43 in /  1030.4 hPa Calm     78 % 0.00 in /  0 mm
23:23 40.5 °F /  4.7 °C 33.8 °F /  1 °C 30.43 in /  1030.4 hPa Calm   1.0 mph /  1.6 km/h 77 % 0.00 in /  0 mm
23:28 40.5 °F /  4.7 °C 34.2 °F /  1.2 °C 30.43 in /  1030.4 hPa Calm   1.0 mph /  1.6 km/h 78 % 0.00 in /  0 mm
23:33 40.1 °F /  4.5 °C 33.4 °F /  0.8 °C 30.43 in /  1030.4 hPa Calm   1.0 mph /  1.6 km/h 77 % 0.00 in /  0 mm
23:38 39.7 °F /  4.3 °C 33.8 °F /  1 °C 30.43 in /  1030.4 hPa Calm     79 % 0.00 in /  0 mm
23:43 39.6 °F /  4.2 °C 33.3 °F /  0.7 °C 30.43 in /  1030.4 hPa Calm     78 % 0.00 in /  0 mm
23:48 39.0 °F /  3.9 °C 33.1 °F /  0.6 °C 30.43 in /  1030.4 hPa Calm     79 % 0.00 in /  0 mm
23:53 38.7 °F /  3.7 °C 33.1 °F /  0.6 °C 30.43 in /  1030.4 hPa Calm     80 % 0.00 in /  0 mm
23:58 38.3 °F /  3.5 °C 32.7 °F /  0.4 °C 30.43 in /  1030.4 hPa Calm     80 % 0.00 in /  0 mm
Spring, Texas: Villages of Bridgestone
Compliments of Weather Underground - 2.75 mb

Script developed by  Jim McMurry - jmcmurry@mwt.net Adapted for the template by  Wim van der Kuil - Leuven-Template.eu

You find our weather info also at:

UK Metoffice

WeatherCloud

Weather Underground

Mid-South Weather Network

AWEKAS

Citizen Weather Observer Program (CWOP)

HAMweather, WeatherForYou, PWS Weather

Equipment we use:

Weather-station
Davis Vantage Vue

Weather-program
Meteohub

Weather-server
Debian 7.9 x86 (Guest)

Provider
DreamHost

Davis Vantage Vue

Meteohub

Debian 7.9 x86 (Guest)

DreamHost